Pagina principale
METAR-TAF:

METAR-TAF

Aeroporti :

Aeroporto di Verona-Villafranca

Verona, Italia

latitudine: 45-23N, longitudine: 010-52E, altezza: 67 m

Osservazione

Il bollettino è stato emesso 16 minuti fa, alle 19:20 UTC
Vento 5 kt da sud-est
Temperature 20°C
Umidità 53%
Pressione 1017 hPa
Visibilità 10 km o più
Poco nuvoloso ad un'altezza di 7000 ft

METAR: LIPX 231920Z 13005KT 9999 FEW070 20/10 Q1017

Ora: 21:36 (19:36 UTC)

Previsione

Il bollettino è stato emesso 2 ore e 36 minuti fa, alle 17:00 UTC
Previsione valida dal 23 alle 18 UTC al 24 alle 03 UTC
Vento 5 kt da direzioni variabili
Visibilità 10 km o più
nessuna nube inferiore a 1500 m e nessun cumulonembo

TAF: LIPX 231700Z 2318/2403 VRB05KT CAVOK

Osservazioni e previsioni meteorologiche di più di 4000 aeroporti (messaggi METAR e TAF).

Le stazioni disponibili sono rappresentate dai dischi gialli e rossi sulla carta.

Puntare il mouse per vedere il nome della stazione.

Clicca sopra per visualizzare le osservazioni e previsioni meteorologiche.

Per cambiare la mappa : fare clic sui pulsanti verdi con una croce nera per ingrandire, il pulsante verde con un trattino per diminuire, o sulla freccia verde per le mappe adiacenti.


METAR-TAF: